Wetterdaten: Mittwoch, 05.08.2020
Datum Zeit Temp. A. Temp. A. min Temp. A. max Feuchte A. Bod.Feucht 4 Luftdruck Regen Wind Richtung Richtung Sonnenschein ET Solar Taupunkt Windchill Windben Empfang
05.08.2020 00:00 14,5 C 14,4 C 14,5 C 78 % 0 cb 1017,6 hPa 0,0 l/m 0,0 km/h (0 Bft) N 0 0 min 0,025 mm 0 W/m 10,7 C 14,5 C 0,0 km/h (0 Bft) 100,00 %
05.08.2020 00:10 14,4 C 14,4 C 14,5 C 78 % 0 cb 1017,6 hPa 0,0 l/m 0,0 km/h (0 Bft) N 0 0 min 0,000 mm 0 W/m 10,6 C 14,4 C 0,0 km/h (0 Bft) 98,68 %
05.08.2020 00:20 14,2 C 14,2 C 14,4 C 79 % 0 cb 1017,6 hPa 0,0 l/m 0,0 km/h (0 Bft) N 0 0 min 0,000 mm 0 W/m 10,6 C 14,2 C 0,0 km/h (0 Bft) 100,00 %
05.08.2020 00:30 14,1 C 14,1 C 14,2 C 80 % 0 cb 1017,7 hPa 0,0 l/m 0,0 km/h (0 Bft) N 0 0 min 0,000 mm 0 W/m 10,7 C 14,1 C 0,0 km/h (0 Bft) 100,00 %
05.08.2020 00:40 13,8 C 13,8 C 14,1 C 80 % 0 cb 1017,7 hPa 0,0 l/m 0,0 km/h (0 Bft) N 0 0 min 0,000 mm 0 W/m 10,4 C 13,8 C 0,0 km/h (0 Bft) 100,00 %
05.08.2020 00:50 13,5 C 13,5 C 13,8 C 82 % 0 cb 1017,7 hPa 0,0 l/m 0,0 km/h (0 Bft) N 0 0 min 0,000 mm 0 W/m 10,5 C 13,5 C 0,0 km/h (0 Bft) 100,00 %
05.08.2020 01:00 13,2 C 13,2 C 13,5 C 83 % 0 cb 1017,7 hPa 0,0 l/m 0,0 km/h (0 Bft) N 0 0 min 0,025 mm 0 W/m 10,4 C 13,2 C 0,0 km/h (0 Bft) 100,00 %
05.08.2020 01:10 13,1 C 13,1 C 13,2 C 84 % 0 cb 1017,6 hPa 0,0 l/m 0,0 km/h (0 Bft) N 0 0 min 0,000 mm 0 W/m 10,5 C 13,1 C 0,0 km/h (0 Bft) 100,00 %
05.08.2020 01:20 13,2 C 13,1 C 13,2 C 83 % 0 cb 1017,6 hPa 0,0 l/m 0,0 km/h (0 Bft) N 0 0 min 0,000 mm 0 W/m 10,4 C 13,2 C 0,0 km/h (0 Bft) 100,00 %
05.08.2020 01:30 13,2 C 13,2 C 13,2 C 83 % 0 cb 1017,7 hPa 0,0 l/m 0,0 km/h (0 Bft) N 0 0 min 0,000 mm 0 W/m 10,4 C 13,2 C 0,0 km/h (0 Bft) 100,00 %
05.08.2020 01:40 13,0 C 13,0 C 13,2 C 82 % 0 cb 1017,6 hPa 0,0 l/m 0,0 km/h (0 Bft) N 0 0 min 0,000 mm 0 W/m 10,0 C 13,0 C 0,0 km/h (0 Bft) 99,56 %
05.08.2020 01:50 12,9 C 12,9 C 13,0 C 82 % 0 cb 1017,6 hPa 0,0 l/m 0,0 km/h (0 Bft) N 0 0 min 0,000 mm 0 W/m 9,9 C 12,9 C 0,0 km/h (0 Bft) 100,00 %
05.08.2020 02:00 12,7 C 12,7 C 12,9 C 83 % 0 cb 1017,6 hPa 0,0 l/m 0,0 km/h (0 Bft) N 0 0 min 0,025 mm 0 W/m 9,9 C 12,7 C 0,0 km/h (0 Bft) 100,00 %
05.08.2020 02:10 12,5 C 12,5 C 12,7 C 84 % 0 cb 1017,5 hPa 0,0 l/m 0,0 km/h (0 Bft) N 0 0 min 0,000 mm 0 W/m 9,9 C 12,5 C 0,0 km/h (0 Bft) 100,00 %
05.08.2020 02:20 12,3 C 12,3 C 12,5 C 85 % 0 cb 1017,5 hPa 0,0 l/m 0,0 km/h (0 Bft) N 0 0 min 0,000 mm 0 W/m 9,9 C 12,3 C 0,0 km/h (0 Bft) 100,00 %
05.08.2020 02:30 12,1 C 12,1 C 12,3 C 86 % 0 cb 1017,6 hPa 0,0 l/m 0,0 km/h (0 Bft) N 0 0 min 0,000 mm 0 W/m 9,8 C 12,1 C 0,0 km/h (0 Bft) 100,00 %
05.08.2020 02:40 11,8 C 11,8 C 12,1 C 86 % 0 cb 1017,7 hPa 0,0 l/m 0,0 km/h (0 Bft) N 0 0 min 0,000 mm 0 W/m 9,5 C 11,8 C 0,0 km/h (0 Bft) 100,00 %
05.08.2020 02:50 11,6 C 11,6 C 11,8 C 86 % 0 cb 1017,6 hPa 0,0 l/m 0,0 km/h (0 Bft) N 0 0 min 0,000 mm 0 W/m 9,3 C 11,6 C 0,0 km/h (0 Bft) 100,00 %
05.08.2020 03:00 11,5 C 11,5 C 11,6 C 87 % 0 cb 1017,7 hPa 0,0 l/m 0,0 km/h (0 Bft) N 0 0 min 0,000 mm 0 W/m 9,4 C 11,5 C 0,0 km/h (0 Bft) 100,00 %
05.08.2020 03:10 11,4 C 11,4 C 11,6 C 88 % 0 cb 1017,8 hPa 0,0 l/m 0,0 km/h (0 Bft) N 0 0 min 0,000 mm 0 W/m 9,5 C 11,4 C 0,0 km/h (0 Bft) 100,00 %
05.08.2020 03:20 11,4 C 11,4 C 11,4 C 88 % 0 cb 1017,7 hPa 0,0 l/m 0,0 km/h (0 Bft) N 0 0 min 0,000 mm 0 W/m 9,5 C 11,4 C 0,0 km/h (0 Bft) 100,00 %
05.08.2020 03:30 11,3 C 11,3 C 11,4 C 88 % 0 cb 1017,6 hPa 0,0 l/m 0,0 km/h (0 Bft) N 0 0 min 0,000 mm 0 W/m 9,4 C 11,3 C 0,0 km/h (0 Bft) 100,00 %
05.08.2020 03:40 11,1 C 11,1 C 11,3 C 88 % 0 cb 1017,6 hPa 0,0 l/m 0,0 km/h (0 Bft) N 0 0 min 0,000 mm 0 W/m 9,2 C 11,1 C 0,0 km/h (0 Bft) 100,00 %
05.08.2020 03:50 10,9 C 10,9 C 11,1 C 89 % 0 cb 1017,7 hPa 0,0 l/m 0,0 km/h (0 Bft) N 0 0 min 0,000 mm 0 W/m 9,2 C 10,9 C 0,0 km/h (0 Bft) 100,00 %
05.08.2020 04:00 10,8 C 10,8 C 10,9 C 89 % 0 cb 1017,7 hPa 0,0 l/m 0,0 km/h (0 Bft) N 0 0 min 0,000 mm 0 W/m 9,1 C 10,8 C 0,0 km/h (0 Bft) 100,00 %
05.08.2020 04:10 10,7 C 10,7 C 10,8 C 89 % 0 cb 1017,8 hPa 0,0 l/m 0,0 km/h (0 Bft) N 0 0 min 0,000 mm 0 W/m 9,0 C 10,7 C 0,0 km/h (0 Bft) 100,00 %
05.08.2020 04:20 10,6 C 10,6 C 10,7 C 90 % 0 cb 1017,7 hPa 0,0 l/m 0,0 km/h (0 Bft) N 0 0 min 0,000 mm 0 W/m 9,0 C 10,6 C 0,0 km/h (0 Bft) 100,00 %
05.08.2020 04:30 10,5 C 10,5 C 10,6 C 90 % 0 cb 1017,7 hPa 0,0 l/m 0,0 km/h (0 Bft) N 0 0 min 0,000 mm 0 W/m 8,9 C 10,5 C 0,0 km/h (0 Bft) 100,00 %
05.08.2020 04:40 10,4 C 10,4 C 10,5 C 90 % 0 cb 1017,7 hPa 0,0 l/m 0,0 km/h (0 Bft) N 0 0 min 0,000 mm 0 W/m 8,8 C 10,4 C 0,0 km/h (0 Bft) 100,00 %
05.08.2020 04:50 10,4 C 10,4 C 10,4 C 91 % 0 cb 1017,8 hPa 0,0 l/m 0,0 km/h (0 Bft) N 0 0 min 0,000 mm 0 W/m 9,0 C 10,4 C 0,0 km/h (0 Bft) 100,00 %
05.08.2020 05:00 10,4 C 10,4 C 10,4 C 91 % 0 cb 1017,8 hPa 0,0 l/m 0,0 km/h (0 Bft) N 0 0 min 0,000 mm 0 W/m 9,0 C 10,4 C 0,0 km/h (0 Bft) 100,00 %
05.08.2020 05:10 10,4 C 10,4 C 10,4 C 91 % 0 cb 1017,8 hPa 0,0 l/m 0,0 km/h (0 Bft) N 0 0 min 0,000 mm 0 W/m 9,0 C 10,4 C 0,0 km/h (0 Bft) 100,00 %
05.08.2020 05:20 10,2 C 10,2 C 10,4 C 91 % 0 cb 1017,8 hPa 0,0 l/m 0,0 km/h (0 Bft) N 0 0 min 0,000 mm 0 W/m 8,8 C 10,2 C 0,0 km/h (0 Bft) 100,00 %
05.08.2020 05:30 10,1 C 10,1 C 10,2 C 91 % 0 cb 1017,8 hPa 0,0 l/m 0,0 km/h (0 Bft) N 0 0 min 0,000 mm 0 W/m 8,7 C 10,1 C 0,0 km/h (0 Bft) 100,00 %
05.08.2020 05:40 10,1 C 10,1 C 10,1 C 91 % 0 cb 1017,9 hPa 0,0 l/m 0,0 km/h (0 Bft) N 0 0 min 0,000 mm 0 W/m 8,7 C 10,1 C 0,0 km/h (0 Bft) 99,56 %
05.08.2020 05:50 9,9 C 9,9 C 10,1 C 91 % 0 cb 1018,0 hPa 0,0 l/m 0,0 km/h (0 Bft) N 0 0 min 0,000 mm 0 W/m 8,5 C 9,9 C 0,0 km/h (0 Bft) 100,00 %
05.08.2020 06:00 9,9 C 9,9 C 9,9 C 92 % 0 cb 1018,0 hPa 0,0 l/m 0,0 km/h (0 Bft) N 0 0 min 0,000 mm 0 W/m 8,7 C 9,9 C 0,0 km/h (0 Bft) 100,00 %
05.08.2020 06:10 9,8 C 9,8 C 9,9 C 91 % 0 cb 1018,1 hPa 0,0 l/m 0,0 km/h (0 Bft) N 0 0 min 0,000 mm 0 W/m 8,4 C 9,8 C 0,0 km/h (0 Bft) 100,00 %
05.08.2020 06:20 9,7 C 9,7 C 9,8 C 92 % 0 cb 1018,3 hPa 0,0 l/m 0,0 km/h (0 Bft) N 0 0 min 0,000 mm 9 W/m 8,5 C 9,7 C 0,0 km/h (0 Bft) 100,00 %
05.08.2020 06:30 9,6 C 9,6 C 9,7 C 92 % 0 cb 1018,3 hPa 0,0 l/m 0,0 km/h (0 Bft) N 0 0 min 0,000 mm 12 W/m 8,4 C 9,6 C 0,0 km/h (0 Bft) 100,00 %
05.08.2020 06:40 9,7 C 9,6 C 9,7 C 93 % 0 cb 1018,3 hPa 0,0 l/m 0,0 km/h (0 Bft) N 0 0 min 0,000 mm 16 W/m 8,6 C 9,7 C 0,0 km/h (0 Bft) 99,56 %
05.08.2020 06:50 9,9 C 9,7 C 9,9 C 94 % 0 cb 1018,3 hPa 0,0 l/m 0,0 km/h (0 Bft) N 0 0 min 0,000 mm 21 W/m 9,0 C 9,9 C 0,0 km/h (0 Bft) 100,00 %
05.08.2020 07:00 10,0 C 9,9 C 10,0 C 93 % 0 cb 1018,3 hPa 0,0 l/m 0,0 km/h (0 Bft) N 0 0 min 0,000 mm 26 W/m 8,9 C 10,0 C 0,0 km/h (0 Bft) 100,00 %
05.08.2020 07:10 10,0 C 10,0 C 10,0 C 93 % 0 cb 1018,4 hPa 0,0 l/m 0,0 km/h (0 Bft) N 0 0 min 0,000 mm 63 W/m 8,9 C 10,0 C 0,0 km/h (0 Bft) 100,00 %
05.08.2020 07:20 10,3 C 10,0 C 10,3 C 94 % 0 cb 1018,5 hPa 0,0 l/m 0,0 km/h (0 Bft) N 0 0 min 0,000 mm 104 W/m 9,4 C 10,3 C 0,0 km/h (0 Bft) 100,00 %
05.08.2020 07:30 11,1 C 10,3 C 11,1 C 95 % 0 cb 1018,6 hPa 0,0 l/m 0,0 km/h (0 Bft) N 0 0 min 0,000 mm 130 W/m 10,3 C 11,1 C 0,0 km/h (0 Bft) 94,30 %
05.08.2020 07:40 11,9 C 11,2 C 11,9 C 94 % 0 cb 1018,6 hPa 0,0 l/m 0,0 km/h (0 Bft) N 0 10 min 0,000 mm 160 W/m 11,0 C 11,9 C 0,0 km/h (0 Bft) 100,00 %
05.08.2020 07:50 13,0 C 12,0 C 13,0 C 93 % 0 cb 1018,5 hPa 0,0 l/m 0,0 km/h (0 Bft) N 0 10 min 0,000 mm 190 W/m 11,9 C 13,0 C 0,0 km/h (0 Bft) 100,00 %
05.08.2020 08:00 13,6 C 13,1 C 13,6 C 89 % 0 cb 1018,6 hPa 0,0 l/m 0,0 km/h (0 Bft) N 0 10 min 0,051 mm 220 W/m 11,8 C 13,6 C 0,0 km/h (0 Bft) 100,00 %
05.08.2020 08:10 14,6 C 13,6 C 14,6 C 89 % 0 cb 1018,6 hPa 0,0 l/m 0,0 km/h (0 Bft) N 0 10 min 0,000 mm 251 W/m 12,8 C 14,6 C 0,0 km/h (0 Bft) 99,56 %
05.08.2020 08:20 15,6 C 14,6 C 15,6 C 83 % 0 cb 1018,6 hPa 0,0 l/m 0,0 km/h (0 Bft) N 0 10 min 0,000 mm 278 W/m 12,7 C 15,6 C 0,0 km/h (0 Bft) 100,00 %
05.08.2020 08:30 16,1 C 15,6 C 16,1 C 81 % 0 cb 1018,7 hPa 0,0 l/m 0,0 km/h (0 Bft) N 0 10 min 0,000 mm 306 W/m 12,8 C 16,1 C 0,0 km/h (0 Bft) 100,00 %
05.08.2020 08:40 16,3 C 16,1 C 16,3 C 79 % 0 cb 1018,7 hPa 0,0 l/m 0,0 km/h (0 Bft) N 0 10 min 0,000 mm 336 W/m 12,6 C 16,3 C 0,0 km/h (0 Bft) 100,00 %
05.08.2020 08:50 17,1 C 16,4 C 17,1 C 76 % 0 cb 1018,8 hPa 0,0 l/m 0,0 km/h (0 Bft) O 90 10 min 0,000 mm 362 W/m 12,8 C 17,1 C 3,2 km/h (1 Bft) 100,00 %
05.08.2020 09:00 17,8 C 17,1 C 17,8 C 73 % 0 cb 1018,9 hPa 0,0 l/m 1,6 km/h (1 Bft) O 90 10 min 0,152 mm 392 W/m 12,9 C 17,8 C 4,8 km/h (1 Bft) 100,00 %
05.08.2020 09:10 18,5 C 17,8 C 18,5 C 69 % 0 cb 1018,8 hPa 0,0 l/m 1,6 km/h (1 Bft) O 90 10 min 0,000 mm 418 W/m 12,7 C 18,5 C 4,8 km/h (1 Bft) 100,00 %
05.08.2020 09:20 19,1 C 18,5 C 19,1 C 66 % 0 cb 1018,8 hPa 0,0 l/m 0,0 km/h (0 Bft) O 90 10 min 0,000 mm 450 W/m 12,6 C 19,1 C 4,8 km/h (1 Bft) 100,00 %
05.08.2020 09:30 19,8 C 19,1 C 19,8 C 64 % 0 cb 1018,9 hPa 0,0 l/m 1,6 km/h (1 Bft) O 90 10 min 0,000 mm 476 W/m 12,8 C 19,8 C 4,8 km/h (1 Bft) 100,00 %
05.08.2020 09:40 20,0 C 19,8 C 20,1 C 61 % 0 cb 1018,8 hPa 0,0 l/m 0,0 km/h (0 Bft) N 0 10 min 0,000 mm 499 W/m 12,2 C 20,0 C 0,0 km/h (0 Bft) 100,00 %
05.08.2020 09:50 20,4 C 20,0 C 20,4 C 62 % 0 cb 1018,8 hPa 0,0 l/m 1,6 km/h (1 Bft) O 90 10 min 0,000 mm 529 W/m 12,9 C 20,4 C 4,8 km/h (1 Bft) 99,56 %
05.08.2020 10:00 20,9 C 20,4 C 20,9 C 60 % 0 cb 1018,8 hPa 0,0 l/m 1,6 km/h (1 Bft) O 90 10 min 0,279 mm 552 W/m 12,8 C 20,9 C 4,8 km/h (1 Bft) 100,00 %
05.08.2020 10:10 21,2 C 20,9 C 21,2 C 58 % 0 cb 1018,8 hPa 0,0 l/m 1,6 km/h (1 Bft) O 90 10 min 0,000 mm 577 W/m 12,6 C 21,2 C 4,8 km/h (1 Bft) 100,00 %
05.08.2020 10:20 22,0 C 21,2 C 22,0 C 57 % 0 cb 1018,8 hPa 0,0 l/m 1,6 km/h (1 Bft) O 90 10 min 0,000 mm 601 W/m 13,1 C 22,0 C 4,8 km/h (1 Bft) 100,00 %
05.08.2020 10:30 22,6 C 22,0 C 22,6 C 52 % 0 cb 1018,7 hPa 0,0 l/m 1,6 km/h (1 Bft) O 90 10 min 0,000 mm 624 W/m 12,2 C 22,6 C 6,4 km/h (2 Bft) 100,00 %
05.08.2020 10:40 23,1 C 22,6 C 23,1 C 51 % 0 cb 1018,6 hPa 0,0 l/m 1,6 km/h (1 Bft) O 90 10 min 0,000 mm 647 W/m 12,4 C 23,1 C 6,4 km/h (2 Bft) 100,00 %
05.08.2020 10:50 23,3 C 23,1 C 23,3 C 52 % 0 cb 1018,6 hPa 0,0 l/m 1,6 km/h (1 Bft) O 90 10 min 0,000 mm 666 W/m 12,9 C 23,3 C 9,7 km/h (2 Bft) 100,00 %
05.08.2020 11:00 23,5 C 23,3 C 23,5 C 51 % 0 cb 1018,7 hPa 0,0 l/m 3,2 km/h (1 Bft) O 90 10 min 0,381 mm 689 W/m 12,8 C 23,5 C 11,3 km/h (2 Bft) 100,00 %
05.08.2020 11:10 23,6 C 23,4 C 23,6 C 51 % 0 cb 1018,6 hPa 0,0 l/m 4,8 km/h (1 Bft) SO 135 10 min 0,000 mm 705 W/m 12,9 C 23,6 C 14,5 km/h (3 Bft) 100,00 %
05.08.2020 11:20 23,7 C 23,5 C 23,7 C 50 % 0 cb 1018,4 hPa 0,0 l/m 3,2 km/h (1 Bft) S 180 10 min 0,000 mm 724 W/m 12,6 C 23,7 C 11,3 km/h (2 Bft) 100,00 %
05.08.2020 11:30 24,1 C 23,7 C 24,1 C 50 % 0 cb 1018,4 hPa 0,0 l/m 4,8 km/h (1 Bft) S 180 10 min 0,000 mm 740 W/m 13,0 C 24,1 C 11,3 km/h (2 Bft) 100,00 %
05.08.2020 11:40 24,6 C 24,1 C 24,6 C 43 % 0 cb 1018,4 hPa 0,0 l/m 3,2 km/h (1 Bft) S 180 10 min 0,000 mm 759 W/m 11,2 C 24,6 C 14,5 km/h (3 Bft) 100,00 %
05.08.2020 11:50 24,7 C 24,6 C 24,8 C 43 % 0 cb 1018,4 hPa 0,0 l/m 6,4 km/h (2 Bft) S-SO 157 10 min 0,000 mm 773 W/m 11,3 C 24,7 C 16,1 km/h (3 Bft) 100,00 %
05.08.2020 12:00 24,5 C 24,5 C 24,7 C 43 % 0 cb 1018,3 hPa 0,0 l/m 4,8 km/h (1 Bft) S-SO 157 10 min 0,483 mm 788 W/m 11,1 C 24,5 C 12,9 km/h (3 Bft) 100,00 %
05.08.2020 12:10 24,7 C 24,5 C 24,7 C 42 % 0 cb 1018,3 hPa 0,0 l/m 4,8 km/h (1 Bft) S 180 10 min 0,000 mm 798 W/m 10,9 C 24,7 C 17,7 km/h (3 Bft) 100,00 %
05.08.2020 12:20 24,8 C 24,7 C 24,8 C 40 % 0 cb 1018,3 hPa 0,0 l/m 3,2 km/h (1 Bft) SW 225 10 min 0,000 mm 805 W/m 10,3 C 24,8 C 17,7 km/h (3 Bft) 100,00 %
05.08.2020 12:30 24,8 C 24,7 C 24,8 C 40 % 0 cb 1018,2 hPa 0,0 l/m 3,2 km/h (1 Bft) SW 225 10 min 0,000 mm 817 W/m 10,3 C 24,8 C 8,0 km/h (2 Bft) 100,00 %
05.08.2020 12:40 25,1 C 24,8 C 25,1 C 39 % 0 cb 1018,1 hPa 0,0 l/m 4,8 km/h (1 Bft) SO 135 10 min 0,000 mm 824 W/m 10,2 C 25,1 C 16,1 km/h (3 Bft) 100,00 %
05.08.2020 12:50 24,9 C 24,9 C 25,1 C 39 % 0 cb 1018,0 hPa 0,0 l/m 4,8 km/h (1 Bft) S 180 10 min 0,000 mm 828 W/m 10,0 C 24,9 C 12,9 km/h (3 Bft) 100,00 %
05.08.2020 13:00 24,8 C 24,8 C 25,0 C 41 % 0 cb 1018,0 hPa 0,0 l/m 4,8 km/h (1 Bft) SO 135 10 min 0,559 mm 833 W/m 10,6 C 24,8 C 12,9 km/h (3 Bft) 100,00 %
05.08.2020 13:10 24,9 C 24,8 C 24,9 C 43 % 0 cb 1017,9 hPa 0,0 l/m 3,2 km/h (1 Bft) O-SO 112 10 min 0,000 mm 838 W/m 11,4 C 24,9 C 14,5 km/h (3 Bft) 100,00 %
05.08.2020 13:20 25,1 C 24,9 C 25,2 C 38 % 0 cb 1017,8 hPa 0,0 l/m 3,2 km/h (1 Bft) O-SO 112 10 min 0,000 mm 840 W/m 9,8 C 25,1 C 11,3 km/h (2 Bft) 100,00 %
05.08.2020 13:30 25,3 C 25,1 C 25,3 C 38 % 0 cb 1017,7 hPa 0,0 l/m 4,8 km/h (1 Bft) O-SO 112 10 min 0,000 mm 844 W/m 9,9 C 25,3 C 14,5 km/h (3 Bft) 100,00 %
05.08.2020 13:40 25,7 C 25,3 C 25,7 C 38 % 0 cb 1017,6 hPa 0,0 l/m 4,8 km/h (1 Bft) SO 135 10 min 0,000 mm 840 W/m 10,3 C 25,7 C 9,7 km/h (2 Bft) 100,00 %
05.08.2020 13:50 25,8 C 25,7 C 25,8 C 38 % 0 cb 1017,5 hPa 0,0 l/m 3,2 km/h (1 Bft) SO 135 10 min 0,000 mm 840 W/m 10,4 C 25,8 C 8,0 km/h (2 Bft) 99,56 %
05.08.2020 14:00 25,6 C 25,6 C 25,8 C 38 % 0 cb 1017,5 hPa 0,0 l/m 4,8 km/h (1 Bft) SO 135 10 min 0,559 mm 838 W/m 10,2 C 25,6 C 17,7 km/h (3 Bft) 100,00 %
05.08.2020 14:10 25,8 C 25,6 C 25,8 C 39 % 0 cb 1017,4 hPa 0,0 l/m 4,8 km/h (1 Bft) W 270 10 min 0,000 mm 831 W/m 10,8 C 25,8 C 14,5 km/h (3 Bft) 100,00 %
05.08.2020 14:20 26,2 C 25,8 C 26,2 C 38 % 0 cb 1017,3 hPa 0,0 l/m 6,4 km/h (2 Bft) S-SW 202 10 min 0,000 mm 824 W/m 10,7 C 26,2 C 16,1 km/h (3 Bft) 100,00 %
05.08.2020 14:30 26,4 C 26,2 C 26,4 C 36 % 0 cb 1017,3 hPa 0,0 l/m 4,8 km/h (1 Bft) S-SW 202 10 min 0,000 mm 819 W/m 10,1 C 26,4 C 14,5 km/h (3 Bft) 100,00 %
05.08.2020 14:40 26,3 C 26,2 C 26,3 C 38 % 0 cb 1017,2 hPa 0,0 l/m 3,2 km/h (1 Bft) SW 225 10 min 0,000 mm 814 W/m 10,8 C 26,3 C 14,5 km/h (3 Bft) 100,00 %
05.08.2020 14:50 26,4 C 26,3 C 26,4 C 38 % 0 cb 1017,1 hPa 0,0 l/m 4,8 km/h (1 Bft) SW 225 10 min 0,000 mm 800 W/m 10,9 C 26,4 C 12,9 km/h (3 Bft) 100,00 %
05.08.2020 15:00 26,2 C 26,2 C 26,4 C 38 % 0 cb 1017,0 hPa 0,0 l/m 4,8 km/h (1 Bft) O-NO 67 10 min 0,559 mm 796 W/m 10,7 C 26,2 C 16,1 km/h (3 Bft) 100,00 %
05.08.2020 15:10 26,5 C 26,2 C 26,5 C 40 % 0 cb 1016,9 hPa 0,0 l/m 4,8 km/h (1 Bft) S 180 10 min 0,000 mm 782 W/m 11,8 C 26,5 C 14,5 km/h (3 Bft) 100,00 %
05.08.2020 15:20 26,8 C 26,5 C 26,8 C 38 % 0 cb 1016,8 hPa 0,0 l/m 4,8 km/h (1 Bft) S-SO 157 10 min 0,000 mm 772 W/m 11,3 C 26,8 C 12,9 km/h (3 Bft) 100,00 %
05.08.2020 15:30 26,8 C 26,8 C 26,8 C 37 % 0 cb 1016,8 hPa 0,0 l/m 6,4 km/h (2 Bft) S 180 10 min 0,000 mm 759 W/m 10,9 C 26,8 C 17,7 km/h (3 Bft) 100,00 %
05.08.2020 15:40 26,7 C 26,7 C 26,8 C 36 % 0 cb 1016,7 hPa 0,0 l/m 4,8 km/h (1 Bft) S 180 10 min 0,000 mm 744 W/m 10,4 C 26,7 C 16,1 km/h (3 Bft) 100,00 %
05.08.2020 15:50 26,8 C 26,7 C 26,8 C 34 % 0 cb 1016,7 hPa 0,0 l/m 6,4 km/h (2 Bft) O-NO 67 10 min 0,000 mm 733 W/m 9,6 C 26,8 C 16,1 km/h (3 Bft) 100,00 %
05.08.2020 16:00 27,1 C 26,8 C 27,1 C 35 % 0 cb 1016,6 hPa 0,0 l/m 3,2 km/h (1 Bft) W-SW 247 10 min 0,533 mm 717 W/m 10,3 C 27,1 C 11,3 km/h (2 Bft) 100,00 %
05.08.2020 16:10 27,3 C 27,1 C 27,3 C 33 % 0 cb 1016,6 hPa 0,0 l/m 3,2 km/h (1 Bft) W-NW 292 10 min 0,000 mm 696 W/m 9,6 C 27,3 C 8,0 km/h (2 Bft) 100,00 %
05.08.2020 16:20 27,3 C 27,3 C 27,3 C 33 % 0 cb 1016,6 hPa 0,0 l/m 4,8 km/h (1 Bft) O-SO 112 10 min 0,000 mm 679 W/m 9,6 C 27,3 C 16,1 km/h (3 Bft) 100,00 %
05.08.2020 16:30 27,3 C 27,3 C 27,3 C 33 % 0 cb 1016,7 hPa 0,0 l/m 4,8 km/h (1 Bft) SO 135 10 min 0,000 mm 656 W/m 9,6 C 27,3 C 12,9 km/h (3 Bft) 100,00 %
05.08.2020 16:40 27,3 C 27,2 C 27,3 C 33 % 0 cb 1016,6 hPa 0,0 l/m 4,8 km/h (1 Bft) O 90 10 min 0,000 mm 635 W/m 9,6 C 27,3 C 11,3 km/h (2 Bft) 100,00 %
05.08.2020 16:50 27,1 C 27,0 C 27,3 C 33 % 0 cb 1016,5 hPa 0,0 l/m 3,2 km/h (1 Bft) O 90 10 min 0,000 mm 610 W/m 9,4 C 27,1 C 11,3 km/h (2 Bft) 100,00 %
05.08.2020 17:00 27,3 C 27,1 C 27,3 C 35 % 0 cb 1016,5 hPa 0,0 l/m 4,8 km/h (1 Bft) S 180 10 min 0,457 mm 589 W/m 10,5 C 27,3 C 12,9 km/h (3 Bft) 100,00 %
05.08.2020 17:10 27,3 C 27,3 C 27,3 C 33 % 0 cb 1016,5 hPa 0,0 l/m 4,8 km/h (1 Bft) O-NO 67 10 min 0,000 mm 570 W/m 9,6 C 27,3 C 14,5 km/h (3 Bft) 100,00 %
05.08.2020 17:20 27,4 C 27,2 C 27,4 C 33 % 0 cb 1016,4 hPa 0,0 l/m 4,8 km/h (1 Bft) S 180 10 min 0,000 mm 547 W/m 9,7 C 27,4 C 9,7 km/h (2 Bft) 100,00 %
05.08.2020 17:30 27,6 C 27,3 C 27,6 C 33 % 0 cb 1016,5 hPa 0,0 l/m 3,2 km/h (1 Bft) S-SW 202 10 min 0,000 mm 520 W/m 9,9 C 27,6 C 11,3 km/h (2 Bft) 100,00 %
05.08.2020 17:40 27,8 C 27,6 C 27,8 C 33 % 0 cb 1016,4 hPa 0,0 l/m 4,8 km/h (1 Bft) SO 135 10 min 0,000 mm 497 W/m 10,0 C 27,8 C 16,1 km/h (3 Bft) 100,00 %
05.08.2020 17:50 27,7 C 27,7 C 27,8 C 33 % 0 cb 1016,4 hPa 0,0 l/m 4,8 km/h (1 Bft) S-SW 202 10 min 0,000 mm 468 W/m 9,9 C 27,7 C 11,3 km/h (2 Bft) 98,25 %
05.08.2020 18:00 27,7 C 27,7 C 27,8 C 33 % 0 cb 1016,4 hPa 0,0 l/m 4,8 km/h (1 Bft) S 180 10 min 0,381 mm 441 W/m 9,9 C 27,7 C 8,0 km/h (2 Bft) 100,00 %
05.08.2020 18:10 27,7 C 27,7 C 27,8 C 35 % 0 cb 1016,4 hPa 0,0 l/m 4,8 km/h (1 Bft) SO 135 10 min 0,000 mm 417 W/m 10,8 C 27,7 C 12,9 km/h (3 Bft) 100,00 %
05.08.2020 18:20 27,4 C 27,4 C 27,7 C 32 % 0 cb 1016,4 hPa 0,0 l/m 4,8 km/h (1 Bft) O 90 10 min 0,000 mm 390 W/m 9,2 C 27,4 C 14,5 km/h (3 Bft) 100,00 %
05.08.2020 18:30 27,2 C 27,2 C 27,4 C 32 % 0 cb 1016,4 hPa 0,0 l/m 3,2 km/h (1 Bft) SO 135 10 min 0,000 mm 360 W/m 9,1 C 27,2 C 11,3 km/h (2 Bft) 100,00 %
05.08.2020 18:40 26,9 C 26,9 C 27,2 C 33 % 0 cb 1016,4 hPa 0,0 l/m 3,2 km/h (1 Bft) O 90 10 min 0,000 mm 334 W/m 9,3 C 26,9 C 8,0 km/h (2 Bft) 100,00 %
05.08.2020 18:50 26,6 C 26,6 C 26,9 C 33 % 0 cb 1016,4 hPa 0,0 l/m 3,2 km/h (1 Bft) O-NO 67 10 min 0,000 mm 306 W/m 9,0 C 26,6 C 8,0 km/h (2 Bft) 100,00 %
05.08.2020 19:00 26,5 C 26,4 C 26,6 C 34 % 0 cb 1016,4 hPa 0,0 l/m 3,2 km/h (1 Bft) S 180 10 min 0,254 mm 278 W/m 9,3 C 26,5 C 6,4 km/h (2 Bft) 100,00 %
05.08.2020 19:10 26,4 C 26,4 C 26,5 C 35 % 0 cb 1016,4 hPa 0,0 l/m 3,2 km/h (1 Bft) S 180 10 min 0,000 mm 202 W/m 9,7 C 26,4 C 11,3 km/h (2 Bft) 100,00 %
05.08.2020 19:20 26,2 C 26,2 C 26,4 C 36 % 0 cb 1016,5 hPa 0,0 l/m 3,2 km/h (1 Bft) S-SO 157 10 min 0,000 mm 223 W/m 9,9 C 26,2 C 11,3 km/h (2 Bft) 100,00 %
05.08.2020 19:30 25,9 C 25,9 C 26,2 C 36 % 0 cb 1016,4 hPa 0,0 l/m 3,2 km/h (1 Bft) SO 135 10 min 0,000 mm 197 W/m 9,7 C 25,9 C 12,9 km/h (3 Bft) 100,00 %
05.08.2020 19:40 25,7 C 25,7 C 25,9 C 36 % 0 cb 1016,5 hPa 0,0 l/m 3,2 km/h (1 Bft) SO 135 10 min 0,000 mm 165 W/m 9,5 C 25,7 C 8,0 km/h (2 Bft) 100,00 %
05.08.2020 19:50 25,4 C 25,4 C 25,7 C 37 % 0 cb 1016,5 hPa 0,0 l/m 1,6 km/h (1 Bft) SO 135 0 min 0,000 mm 137 W/m 9,6 C 25,4 C 9,7 km/h (2 Bft) 100,00 %
05.08.2020 20:00 25,2 C 25,2 C 25,4 C 37 % 0 cb 1016,6 hPa 0,0 l/m 1,6 km/h (1 Bft) SO 135 0 min 0,127 mm 109 W/m 9,5 C 25,2 C 6,4 km/h (2 Bft) 100,00 %
05.08.2020 20:10 24,7 C 24,7 C 25,2 C 38 % 0 cb 1016,6 hPa 0,0 l/m 1,6 km/h (1 Bft) SO 135 0 min 0,000 mm 83 W/m 9,4 C 24,7 C 4,8 km/h (1 Bft) 100,00 %
05.08.2020 20:20 24,3 C 24,3 C 24,7 C 39 % 0 cb 1016,7 hPa 0,0 l/m 1,6 km/h (1 Bft) SO 135 0 min 0,000 mm 23 W/m 9,4 C 24,3 C 4,8 km/h (1 Bft) 100,00 %
05.08.2020 20:30 23,8 C 23,8 C 24,3 C 41 % 0 cb 1016,7 hPa 0,0 l/m 1,6 km/h (1 Bft) SO 135 0 min 0,000 mm 19 W/m 9,7 C 23,8 C 6,4 km/h (2 Bft) 100,00 %
05.08.2020 20:40 23,3 C 23,3 C 23,8 C 42 % 0 cb 1016,8 hPa 0,0 l/m 0,0 km/h (0 Bft) SO 135 0 min 0,000 mm 16 W/m 9,7 C 23,3 C 3,2 km/h (1 Bft) 100,00 %
05.08.2020 20:50 22,7 C 22,7 C 23,2 C 43 % 0 cb 1017,0 hPa 0,0 l/m 0,0 km/h (0 Bft) SO 135 0 min 0,000 mm 12 W/m 9,5 C 22,7 C 1,6 km/h (1 Bft) 100,00 %
05.08.2020 21:00 22,2 C 22,2 C 22,7 C 44 % 0 cb 1017,0 hPa 0,0 l/m 0,0 km/h (0 Bft) SO 135 0 min 0,025 mm 9 W/m 9,4 C 22,2 C 3,2 km/h (1 Bft) 100,00 %
05.08.2020 21:10 21,7 C 21,7 C 22,2 C 46 % 0 cb 1017,1 hPa 0,0 l/m 0,0 km/h (0 Bft) SO 135 0 min 0,000 mm 5 W/m 9,6 C 21,7 C 1,6 km/h (1 Bft) 100,00 %
05.08.2020 21:20 21,1 C 21,1 C 21,7 C 48 % 0 cb 1017,1 hPa 0,0 l/m 0,0 km/h (0 Bft) N 0 0 min 0,000 mm 0 W/m 9,7 C 21,1 C 0,0 km/h (0 Bft) 100,00 %
05.08.2020 21:30 20,6 C 20,6 C 21,1 C 49 % 0 cb 1017,2 hPa 0,0 l/m 0,0 km/h (0 Bft) N 0 0 min 0,000 mm 0 W/m 9,5 C 20,6 C 0,0 km/h (0 Bft) 100,00 %
05.08.2020 21:40 20,2 C 20,2 C 20,6 C 50 % 0 cb 1017,4 hPa 0,0 l/m 0,0 km/h (0 Bft) SO 135 0 min 0,000 mm 0 W/m 9,4 C 20,2 C 1,6 km/h (1 Bft) 100,00 %
05.08.2020 21:50 19,9 C 19,9 C 20,2 C 51 % 0 cb 1017,5 hPa 0,0 l/m 0,0 km/h (0 Bft) SO 135 0 min 0,000 mm 0 W/m 9,5 C 19,9 C 3,2 km/h (1 Bft) 100,00 %
05.08.2020 22:00 19,6 C 19,6 C 19,9 C 52 % 0 cb 1017,6 hPa 0,0 l/m 0,0 km/h (0 Bft) SO 135 0 min 0,025 mm 0 W/m 9,5 C 19,6 C 1,6 km/h (1 Bft) 100,00 %
05.08.2020 22:10 19,3 C 19,3 C 19,6 C 53 % 0 cb 1017,6 hPa 0,0 l/m 0,0 km/h (0 Bft) N 0 0 min 0,000 mm 0 W/m 9,5 C 19,3 C 0,0 km/h (0 Bft) 100,00 %
05.08.2020 22:20 18,9 C 18,9 C 19,3 C 53 % 0 cb 1017,7 hPa 0,0 l/m 0,0 km/h (0 Bft) N 0 0 min 0,000 mm 0 W/m 9,1 C 18,9 C 0,0 km/h (0 Bft) 100,00 %
05.08.2020 22:30 18,8 C 18,8 C 18,9 C 54 % 0 cb 1017,7 hPa 0,0 l/m 0,0 km/h (0 Bft) N 0 0 min 0,000 mm 0 W/m 9,3 C 18,8 C 0,0 km/h (0 Bft) 100,00 %
05.08.2020 22:40 18,8 C 18,8 C 18,8 C 53 % 0 cb 1017,6 hPa 0,0 l/m 0,0 km/h (0 Bft) SO 135 0 min 0,000 mm 0 W/m 9,0 C 18,8 C 3,2 km/h (1 Bft) 100,00 %
05.08.2020 22:50 18,8 C 18,8 C 18,8 C 53 % 0 cb 1017,7 hPa 0,0 l/m 0,0 km/h (0 Bft) N 0 0 min 0,000 mm 0 W/m 9,0 C 18,8 C 0,0 km/h (0 Bft) 100,00 %
05.08.2020 23:00 18,5 C 18,5 C 18,8 C 54 % 0 cb 1017,7 hPa 0,0 l/m 0,0 km/h (0 Bft) N 0 0 min 0,051 mm 0 W/m 9,0 C 18,5 C 0,0 km/h (0 Bft) 100,00 %
05.08.2020 23:10 18,3 C 18,3 C 18,4 C 55 % 0 cb 1017,8 hPa 0,0 l/m 0,0 km/h (0 Bft) N 0 0 min 0,000 mm 0 W/m 9,1 C 18,3 C 0,0 km/h (0 Bft) 100,00 %
05.08.2020 23:20 18,0 C 18,0 C 18,3 C 56 % 0 cb 1017,8 hPa 0,0 l/m 0,0 km/h (0 Bft) N 0 0 min 0,000 mm 0 W/m 9,1 C 18,0 C 0,0 km/h (0 Bft) 100,00 %
05.08.2020 23:30 17,7 C 17,7 C 18,0 C 58 % 0 cb 1017,8 hPa 0,0 l/m 0,0 km/h (0 Bft) N 0 0 min 0,000 mm 0 W/m 9,3 C 17,7 C 0,0 km/h (0 Bft) 100,00 %
05.08.2020 23:40 17,4 C 17,4 C 17,7 C 58 % 0 cb 1017,9 hPa 0,0 l/m 0,0 km/h (0 Bft) N 0 0 min 0,000 mm 0 W/m 9,1 C 17,4 C 0,0 km/h (0 Bft) 100,00 %
05.08.2020 23:50 17,6 C 17,4 C 17,6 C 58 % 0 cb 1017,9 hPa 0,0 l/m 0,0 km/h (0 Bft) N 0 0 min 0,000 mm 0 W/m 9,2 C 17,6 C 0,0 km/h (0 Bft) 100,00 %
_ Min-Zeit 06:30 06:30 06:30 18:20 00:00 17:20 - 00:00 - - - - - 06:30 06:30 00:00 07:30
Minimum _ 9,6 C 9,6 C 9,7 C 32 % 0 cb 1016,4 hPa - 0,0 km/h (0 Bft) - - - - - 8,4 C 9,6 C 0,0 km/h (0 Bft) 94,30 %
_ Max-Zeit 17:40 17:50 17:40 07:30 00:00 09:00 00:00 11:50 - - 07:40 13:00 13:30 10:20 17:40 12:10 00:00
Maximum _ 27,8 C 27,7 C 27,8 C 95 % 0 cb 1018,9 hPa 0,0 l/m 6,4 km/h
S-SO (2 Bft)
- - 10 min 0,559 mm 844 W/m 13,1 C 27,8 C 17,7 km/h
S (3 Bft)
100,00 %
Durchschnitt _ 19,4 C 19,3 C 19,6 C 60 % 0 cb 1017,6 hPa #0,0 l/m 1,8 km/h (1 Bft) SO - #12:10 h #4,951 mm 485 W/m 10,2 C 19,4 C 5,5 km/h (1 Bft) 99,92 %
Wetterstation Gdesweiler